John F Kennedy International Airport
KJFK : rendu visible

Aérodrome :











RETROUVEZ-NOUS SUR...

 
LOGIN :

S'inscrire | Disclaimer

   EN    FR    IT 

 









Légende :    VFR   VFR Marginal   IFR   IFR Intensif   IFR Très Intensif
Visi : 
Plafond : 
>= 8 km
>= 3000ft
5 à 8 km
1000 à 3000 ft
1500m à 5 km
500 à 1000 ft
800 à 1500m
200 à 500 ft
< 800m
< 200 ft
Symboles :   Orages  Brouillard  Fortes neiges  Fortes précipitations  Vent > 20 kt







- Altitude de l'aérodrome : 13 ft
- Code IATA : JFK


KJFK - John F Kennedy International

DERNIER METAR :
  • 210751Z 32022G28KT 10SM FEW055 17/07 A2983 RMK AO2 PK WND 31030/0702 SLP102 T01670072

METARs EXPIRÉS :
  • 210651Z 31019G30KT 10SM FEW250 18/09 A2983 RMK AO2 PK WND 31030/0649 SLP100 T01830094
  • 210551Z 33020G25KT 10SM FEW250 19/11 A2980 RMK AO2 PK WND 33028/0516 SLP089 T01940106 10278 20194 51013

TAF KJFK
Valide du 21 à 09h jusqu'au 22 à 12h UTC


210834Z 2109/2212 32016G23KT P6SM FEW050 FEW250
FM211300 31018G26KT P6SM FEW050 FEW250
FM211500 29018G28KT P6SM FEW040 FEW250
FM220000 33014G21KT P6SM FEW250
FM220300 32012KT P6SM FEW250
FIR KZNY / Amérique du Nord



MET'MAP, la Météo Aéronautique d'un coup d'oeil ! - Copyright ORBIFLY Décembre 2007 - Disclaimer

ORBIFLY MET'MAP TEAM :

Programmation & Développement : Alexandra Zaïnal
Conception & Développement : Baudouin d'Aumeries
Co-Programmation & Développement : Marc-Olivier Méhu
Soutien technique & logistique : Manuel Goepfert

Contact : metmap@orbifly.com




SOURCES & CREDITS :

   NOAA       Earth
Advisory